Time;durP1;ratioP1;P1;durP2;ratioP2;P2;SDS_P1;SDS_P2;PMS_P1;PMS_P2;Temp;Humidity;BMP_temperature;BMP_pressure;BME280_temperature;BME280_humidity;BME280_pressure;Samples;Min_cycle;Max_cycle;Signal;HPM_P1;HPM_P2
2022/07/11 00:01:35;;;;;;;2.50;1.27;;;;;;;15.31;100.00;102372.88;4991728;28;20041;-81
2022/07/11 00:04:04;;;;;;;1.38;1.27;;;;;;;15.28;100.00;102379.06;4991958;28;20507;-81
2022/07/11 00:06:32;;;;;;;3.20;1.50;;;;;;;15.25;100.00;102378.13;4969086;28;20069;-81
2022/07/11 00:09:01;;;;;;;3.10;1.98;;;;;;;15.24;100.00;102373.72;4998372;28;20050;-81
2022/07/11 00:11:29;;;;;;;2.50;2.00;;;;;;;15.20;100.00;102376.34;4989029;28;20073;-82
2022/07/11 00:13:58;;;;;;;3.00;1.55;;;;;;;15.20;100.00;102373.69;4974543;28;20419;-81
2022/07/11 00:16:28;;;;;;;4.15;2.05;;;;;;;15.19;100.00;102374.53;4964172;28;20046;-82
2022/07/11 00:18:57;;;;;;;4.85;2.20;;;;;;;15.17;100.00;102376.31;4970594;28;20053;-82
2022/07/11 00:21:25;;;;;;;2.60;1.58;;;;;;;15.15;100.00;102371.88;4932893;28;20729;-81
2022/07/11 00:23:54;;;;;;;3.10;2.17;;;;;;;15.14;100.00;102372.72;4982433;28;20321;-81
2022/07/11 00:26:22;;;;;;;2.88;2.00;;;;;;;15.11;100.00;102370.06;4998144;28;20538;-81
2022/07/11 00:28:51;;;;;;;3.60;2.60;;;;;;;15.08;100.00;102365.59;4981388;28;20121;-82
2022/07/11 00:31:20;;;;;;;3.10;1.80;;;;;;;15.08;100.00;102378.00;4984418;28;20037;-82
2022/07/11 00:33:48;;;;;;;2.95;2.70;;;;;;;15.04;100.00;102366.44;4968428;28;20050;-81
2022/07/11 00:36:17;;;;;;;2.88;2.17;;;;;;;15.04;100.00;102370.88;4943995;28;20411;-80
2022/07/11 00:38:46;;;;;;;2.25;2.05;;;;;;;15.02;100.00;102366.44;4990270;28;20048;-81
2022/07/11 00:41:14;;;;;;;2.45;1.90;;;;;;;15.02;100.00;102368.19;5000999;28;20054;-81
2022/07/11 00:43:43;;;;;;;2.78;2.55;;;;;;;14.98;100.00;102364.63;4990604;28;20037;-81
2022/07/11 00:46:12;;;;;;;5.22;2.40;;;;;;;14.97;100.00;102356.66;4996990;28;20057;-81
2022/07/11 00:48:40;;;;;;;5.63;2.40;;;;;;;14.96;100.00;102362.84;5002129;28;20054;-81
2022/07/11 00:51:09;;;;;;;5.00;3.05;;;;;;;14.95;100.00;102358.41;4966853;28;20039;-82
2022/07/11 00:53:39;;;;;;;6.47;2.90;;;;;;;14.93;100.00;102361.06;4925570;28;20530;-82
2022/07/11 00:56:09;;;;;;;6.93;3.30;;;;;;;14.94;100.00;102351.31;4988291;28;20046;-81
2022/07/11 00:58:38;;;;;;;4.05;2.53;;;;;;;14.93;100.00;102349.53;4988914;28;20056;-81
2022/07/11 01:01:06;;;;;;;3.95;2.55;;;;;;;14.92;100.00;102353.09;4965402;28;20054;-83
2022/07/11 01:03:35;;;;;;;5.22;2.90;;;;;;;14.92;100.00;102350.44;4980186;28;20046;-83
2022/07/11 01:06:05;;;;;;;6.13;3.10;;;;;;;14.91;100.00;102348.63;4977396;28;20412;-83
2022/07/11 01:08:36;;;;;;;4.55;2.47;;;;;;;14.90;100.00;102355.72;4949721;28;20057;-82
2022/07/11 01:11:12;;;;;;;6.88;3.47;;;;;;;14.91;100.00;102356.59;4970087;28;20034;-83
2022/07/11 01:13:41;;;;;;;3.55;2.60;;;;;;;14.87;100.00;102347.72;5003907;28;20054;-83
2022/07/11 01:16:18;;;;;;;3.72;3.10;;;;;;;14.86;100.00;102343.31;4981375;28;20507;-83
2022/07/11 01:18:52;;;;;;;3.33;2.15;;;;;;;14.85;100.00;102343.28;5002318;28;20053;-83
2022/07/11 01:21:41;;;;;;;4.97;2.85;;;;;;;14.85;100.00;102341.50;4976293;28;20212;-83
2022/07/11 01:24:09;;;;;;;3.15;2.67;;;;;;;14.84;100.00;102341.47;4955973;28;20046;-83
2022/07/11 01:26:38;;;;;;;3.78;2.53;;;;;;;14.85;100.00;102340.63;4986067;28;20351;-83
2022/07/11 01:29:08;;;;;;;8.13;3.10;;;;;;;14.84;100.00;102338.84;4978017;28;20069;-83
2022/07/11 01:31:46;;;;;;;3.50;2.90;;;;;;;14.84;100.00;102336.19;4988038;28;20050;-83
2022/07/11 01:34:16;;;;;;;3.17;2.85;;;;;;;14.84;100.00;102337.09;4980246;28;20046;-83
2022/07/11 01:36:45;;;;;;;3.92;2.60;;;;;;;14.82;100.00;102336.19;4967744;28;20053;-83
2022/07/11 01:39:14;;;;;;;3.65;2.85;;;;;;;14.82;100.00;102337.06;4950544;28;20402;-82
2022/07/11 01:41:42;;;;;;;3.63;2.75;;;;;;;14.84;100.00;102333.53;4944382;28;20043;-83
2022/07/11 01:44:13;;;;;;;3.90;3.38;;;;;;;14.82;100.00;102336.19;4968066;28;20062;-84
2022/07/11 01:46:41;;;;;;;;;;;;;;;14.81;100.00;102340.59;4974938;28;20372;-82
2022/07/11 01:49:13;;;;;;;6.15;3.50;;;;;;;14.80;100.00;102337.91;4966051;28;19933;-82
2022/07/11 01:51:42;;;;;;;3.90;3.42;;;;;;;14.81;100.00;102334.41;4988054;28;20042;-83
2022/07/11 01:54:11;;;;;;;3.92;3.55;;;;;;;14.79;100.00;102344.13;4963657;28;20061;-82
2022/07/11 01:56:39;;;;;;;6.78;4.28;;;;;;;14.78;100.00;102337.00;4917399;28;20049;-81
2022/07/11 01:59:08;;;;;;;9.52;3.53;;;;;;;14.80;100.00;102335.25;4986296;28;20053;-82
2022/07/11 02:01:37;;;;;;;6.63;3.88;;;;;;;14.79;100.00;102347.66;5004276;28;20077;-82
2022/07/11 02:04:05;;;;;;;5.20;3.08;;;;;;;14.76;100.00;102347.63;5004383;28;20054;-81
2022/07/11 02:06:34;;;;;;;3.33;2.72;;;;;;;14.76;100.00;102350.28;4987478;28;20454;-82
2022/07/11 02:09:02;;;;;;;4.65;2.97;;;;;;;14.76;100.00;102347.63;4976458;28;20046;-83
2022/07/11 02:11:31;;;;;;;2.75;2.55;;;;;;;14.75;100.00;102345.84;4957258;28;20042;-83
2022/07/11 02:13:59;;;;;;;5.43;2.85;;;;;;;14.76;100.00;102336.09;4997576;28;20065;-83
2022/07/11 02:16:28;;;;;;;3.67;2.45;;;;;;;14.75;100.00;102340.53;4965998;28;20042;-83
2022/07/11 02:18:59;;;;;;;5.20;2.45;;;;;;;14.74;100.00;102337.84;4972691;28;20050;-83
2022/07/11 02:21:27;;;;;;;3.10;2.45;;;;;;;14.74;100.00;102338.75;4947187;28;20260;-84
2022/07/11 02:23:59;;;;;;;3.80;2.70;;;;;;;14.73;100.00;102342.28;4981283;28;20041;-82
2022/07/11 02:26:27;;;;;;;3.15;2.40;;;;;;;14.74;100.00;102338.75;4987413;28;20072;-82
2022/07/11 02:28:56;;;;;;;3.60;2.13;;;;;;;14.75;100.00;102340.53;4955422;28;20057;-82
2022/07/11 02:31:25;;;;;;;3.30;2.40;;;;;;;14.73;100.00;102336.97;4981861;28;20167;-82
2022/07/11 02:33:53;;;;;;;5.55;2.90;;;;;;;14.72;100.00;102345.78;4961835;28;20606;-82
2022/07/11 02:36:21;;;;;;;5.20;2.85;;;;;;;14.73;100.00;102342.28;4978329;28;20054;-81
2022/07/11 02:38:50;;;;;;;5.03;2.75;;;;;;;14.73;100.00;102350.25;4964145;28;20054;-82
2022/07/11 02:41:19;;;;;;;4.45;2.75;;;;;;;14.74;100.00;102338.75;4971350;28;20046;-82
2022/07/11 02:43:50;;;;;;;3.05;2.75;;;;;;;14.74;100.00;102335.22;4944945;28;20413;-83
2022/07/11 02:46:19;;;;;;;8.20;2.88;;;;;;;14.74;100.00;102340.50;4972018;28;20730;-83
2022/07/11 02:48:47;;;;;;;4.63;2.90;;;;;;;14.75;100.00;102345.84;4967227;28;20407;-83
2022/07/11 02:51:16;;;;;;;2.22;2.05;;;;;;;14.75;100.00;102337.00;4979533;28;20049;-82
2022/07/11 02:53:44;;;;;;;2.55;1.92;;;;;;;14.73;100.00;102334.31;4998673;28;20052;-85
2022/07/11 02:56:13;;;;;;;2.20;2.00;;;;;;;14.74;100.00;102341.41;4989581;28;20061;-83
2022/07/11 02:58:41;;;;;;;1.60;1.50;;;;;;;14.72;100.00;102340.50;4943953;28;20053;-83
2022/07/11 03:01:09;;;;;;;4.63;1.58;;;;;;;14.69;100.00;102332.53;5009192;28;20030;-83
2022/07/11 03:03:37;;;;;;;2.83;1.50;;;;;;;14.68;100.00;102344.00;5008007;28;20042;-82
2022/07/11 03:06:06;;;;;;;1.77;1.40;;;;;;;14.68;100.00;102344.00;4970834;28;20395;-83
2022/07/11 03:08:36;;;;;;;4.47;2.00;;;;;;;14.67;100.00;102344.88;4969290;28;21449;-83
2022/07/11 03:11:05;;;;;;;2.08;1.40;;;;;;;14.65;100.00;102338.69;4991325;28;20069;-83
2022/07/11 03:13:35;;;;;;;1.77;1.52;;;;;;;14.67;100.00;102341.31;4927300;28;20168;-83
2022/07/11 03:16:05;;;;;;;1.80;1.40;;;;;;;14.65;100.00;102338.69;4976317;28;20038;-83
2022/07/11 03:18:34;;;;;;;2.35;1.83;;;;;;;14.65;100.00;102329.81;4991398;28;20439;-83
2022/07/11 03:21:02;;;;;;;2.25;1.60;;;;;;;14.66;100.00;102340.44;4991207;28;20050;-83
2022/07/11 03:23:31;;;;;;;1.92;1.73;;;;;;;14.66;100.00;102340.44;4966842;28;20026;-83
2022/07/11 03:26:00;;;;;;;3.10;2.35;;;;;;;14.69;100.00;102331.59;4978017;28;20046;-84
2022/07/11 03:28:28;;;;;;;3.65;2.15;;;;;;;14.70;100.00;102336.94;4952122;28;20868;-83
2022/07/11 03:30:57;;;;;;;1.95;1.80;;;;;;;14.72;100.00;102331.66;5003513;28;20050;-83
2022/07/11 03:33:25;;;;;;;1.67;1.58;;;;;;;14.73;100.00;102336.97;4985328;28;20434;-83
2022/07/11 03:35:54;;;;;;;2.03;1.70;;;;;;;14.73;100.00;102336.97;4975484;28;20061;-82
2022/07/11 03:38:22;;;;;;;2.08;1.90;;;;;;;14.75;100.00;102337.00;4950254;28;20152;-82
2022/07/11 03:40:51;;;;;;;2.95;2.08;;;;;;;14.76;100.00;102336.09;4970013;28;20112;-83
2022/07/11 03:43:19;;;;;;;2.58;1.90;;;;;;;14.76;100.00;102331.72;4967481;28;20678;-83
2022/07/11 03:45:47;;;;;;;5.30;1.80;;;;;;;14.77;100.00;102333.47;4944055;28;20042;-84
2022/07/11 03:48:16;;;;;;;1.88;1.73;;;;;;;14.79;100.00;102334.38;5001750;28;20049;-83
2022/07/11 03:50:44;;;;;;;3.95;2.20;;;;;;;14.80;100.00;102338.81;5003894;28;20505;-83
2022/07/11 03:53:13;;;;;;;3.08;1.80;;;;;;;14.81;100.00;102332.63;4973477;28;20030;-82
2022/07/11 03:55:42;;;;;;;3.50;1.80;;;;;;;14.82;100.00;102337.06;4983436;28;20057;-83
2022/07/11 03:58:11;;;;;;;3.25;1.65;;;;;;;14.83;100.00;102330.00;5008310;28;20053;-82
2022/07/11 04:00:40;;;;;;;3.75;2.05;;;;;;;14.84;100.00;102334.44;4955139;28;20419;-83
2022/07/11 04:03:08;;;;;;;2.38;1.83;;;;;;;14.86;100.00;102340.66;4988167;28;20038;-83
2022/07/11 04:05:37;;;;;;;1.55;1.45;;;;;;;14.86;100.00;102339.72;4987789;28;20059;-83
2022/07/11 04:08:05;;;;;;;2.90;1.73;;;;;;;14.86;100.00;102339.72;4999612;28;20053;-83
2022/07/11 04:10:33;;;;;;;3.42;2.10;;;;;;;14.86;100.00;102342.38;4979037;28;20573;-82
2022/07/11 04:13:02;;;;;;;4.72;1.40;;;;;;;14.83;100.00;102343.25;4993035;28;20046;-83
2022/07/11 04:15:30;;;;;;;5.15;1.20;;;;;;;14.80;100.00;102344.13;4951380;28;20538;-82
2022/07/11 04:17:59;;;;;;;0.90;0.90;;;;;;;14.76;100.00;102346.72;4990616;28;20048;-83
2022/07/11 04:20:28;;;;;;;0.98;0.95;;;;;;;14.74;100.00;102348.47;4989372;28;20041;-84
2022/07/11 04:22:57;;;;;;;0.80;0.77;;;;;;;14.72;100.00;102351.09;4999790;28;20052;-83
2022/07/11 04:25:25;;;;;;;1.60;1.20;;;;;;;14.74;100.00;102344.03;4973710;28;20591;-83
2022/07/11 04:27:54;;;;;;;3.17;1.00;;;;;;;14.75;100.00;102345.84;4991199;28;20049;-82
2022/07/11 04:30:22;;;;;;;0.95;0.95;;;;;;;14.78;100.00;102339.66;4966798;28;20208;-82
2022/07/11 04:32:50;;;;;;;3.40;1.30;;;;;;;14.79;100.00;102352.06;4951783;28;20065;-83
2022/07/11 04:35:19;;;;;;;1.20;0.73;;;;;;;14.83;100.00;102356.53;4994424;28;20249;-82
2022/07/11 04:37:51;;;;;;;2.67;1.10;;;;;;;14.85;100.00;102349.47;4982037;28;20050;-83
2022/07/11 04:40:23;;;;;;;2.50;1.27;;;;;;;14.89;100.00;102358.34;4972763;28;20057;-82
2022/07/11 04:42:52;;;;;;;1.48;1.30;;;;;;;14.89;100.00;102351.28;4986555;28;20038;-83
2022/07/11 04:45:21;;;;;;;2.63;1.17;;;;;;;14.92;100.00;102346.00;4923812;28;20037;-82
2022/07/11 04:47:49;;;;;;;1.60;1.27;;;;;;;14.93;100.00;102349.53;4970582;28;20042;-82
2022/07/11 04:50:18;;;;;;;4.20;1.27;;;;;;;14.94;100.00;102351.31;4977670;28;20527;-83
2022/07/11 04:52:46;;;;;;;1.98;1.15;;;;;;;14.92;100.00;102358.38;4972622;28;20054;-83
2022/07/11 04:55:16;;;;;;;2.72;0.90;;;;;;;14.90;100.00;102360.16;4980312;28;20038;-82
2022/07/11 04:57:44;;;;;;;1.75;0.80;;;;;;;14.89;100.00;102358.34;4997599;28;20050;-83
2022/07/11 05:00:13;;;;;;;0.95;0.60;;;;;;;14.87;100.00;102365.41;4988058;28;20050;-83
2022/07/11 05:02:41;;;;;;;0.50;0.50;;;;;;;14.86;100.00;102366.28;4973718;28;20047;-82
2022/07/11 05:05:10;;;;;;;1.25;0.50;;;;;;;14.87;100.00;102365.41;4987219;28;20138;-84
2022/07/11 05:07:38;;;;;;;0.85;0.60;;;;;;;14.89;100.00;102371.63;4969362;28;20061;-83
2022/07/11 05:10:07;;;;;;;0.60;0.60;;;;;;;14.89;100.00;102367.19;4945005;28;20053;-82
2022/07/11 05:12:36;;;;;;;0.60;0.60;;;;;;;14.91;100.00;102367.22;4995358;28;20057;-83
2022/07/11 05:15:05;;;;;;;2.30;0.82;;;;;;;14.92;100.00;102377.84;4989418;28;20038;-83
2022/07/11 05:17:33;;;;;;;2.75;0.77;;;;;;;14.94;100.00;102373.44;4941908;28;22022;-83
2022/07/11 05:20:03;;;;;;;0.52;0.50;;;;;;;14.95;100.00;102374.31;4984667;28;20050;-83
2022/07/11 05:22:31;;;;;;;1.52;0.70;;;;;;;14.97;100.00;102369.91;4960911;28;20166;-82
2022/07/11 05:24:59;;;;;;;2.67;0.73;;;;;;;15.00;100.00;102376.16;5006879;28;20402;-83
2022/07/11 05:27:28;;;;;;;2.88;0.90;;;;;;;15.03;100.00;102383.28;4965444;28;20451;-82
2022/07/11 05:29:56;;;;;;;1.58;0.95;;;;;;;15.05;100.00;102380.59;4975447;28;20038;-83
2022/07/11 05:32:27;;;;;;;2.72;0.65;;;;;;;15.08;100.00;102381.53;4978645;28;20227;-83
2022/07/11 05:35:03;;;;;;;2.97;0.75;;;;;;;15.11;100.00;102383.34;4937249;28;20042;-83
2022/07/11 05:37:32;;;;;;;1.10;0.70;;;;;;;15.14;100.00;102380.69;4957079;28;20791;-83
2022/07/11 05:40:01;;;;;;;3.05;0.73;;;;;;;15.20;100.00;102392.28;4970874;28;20395;-83
2022/07/11 05:42:34;;;;;;;0.63;0.60;;;;;;;15.27;100.00;102385.22;4942918;28;20049;-81
2022/07/11 05:45:03;;;;;;;0.82;0.63;;;;;;;15.30;100.00;102381.72;4977545;28;20056;-82
2022/07/11 05:47:31;;;;;;;2.65;0.50;;;;;;;15.33;100.00;102387.97;4985824;28;20606;-82
2022/07/11 05:49:59;;;;;;;1.25;0.60;;;;;;;15.40;100.00;102386.22;4925053;28;20053;-83
2022/07/11 05:52:28;;;;;;;1.17;0.60;;;;;;;15.46;100.00;102386.25;4999710;28;20042;-82
2022/07/11 05:54:56;;;;;;;1.85;0.70;;;;;;;15.48;100.00;102387.19;4986567;28;20733;-81
2022/07/11 05:57:27;;;;;;;2.80;0.85;;;;;;;15.49;100.00;102383.63;4991224;28;20447;-82
2022/07/11 05:59:55;;;;;;;3.28;0.80;;;;;;;15.51;100.00;102383.66;4958956;28;20046;-82
2022/07/11 06:02:24;;;;;;;1.63;0.70;;;;;;;15.52;100.00;102385.41;4965231;28;20172;-82
2022/07/11 06:04:53;;;;;;;1.63;0.90;;;;;;;15.53;100.00;102382.78;4981776;28;20046;-82
2022/07/11 06:10:09;;;;;;;3.20;0.70;;;;;;;15.55;100.00;102383.66;4959369;28;20038;-82
2022/07/11 06:12:37;;;;;;;1.33;0.60;;;;;;;15.62;100.00;102389.06;4997112;28;20046;-82
2022/07/11 06:15:06;;;;;;;0.70;0.50;;;;;;;15.83;100.00;102386.56;4952899;28;20039;-81
2022/07/11 06:17:34;;;;;;;2.38;0.60;;;;;;;16.05;100.00;102387.56;4988485;28;20042;-82
2022/07/11 06:20:02;;;;;;;0.60;0.60;;;;;;;16.20;100.00;102378.78;4946830;28;20927;-82
2022/07/11 06:22:31;;;;;;;0.98;0.57;;;;;;;16.26;100.00;102381.44;4958570;28;20112;-83
2022/07/11 06:25:00;;;;;;;1.10;0.57;;;;;;;16.30;100.00;102371.72;4977334;28;20049;-82
2022/07/11 06:27:28;;;;;;;0.93;0.60;;;;;;;16.32;100.00;102362.84;4961990;28;20034;-82
2022/07/11 06:29:57;;;;;;;0.50;0.50;;;;;;;16.35;100.00;102368.19;4979491;28;20054;-81
2022/07/11 06:32:25;;;;;;;1.00;1.00;;;;;;;16.42;100.00;102368.19;4974478;28;20041;-81
2022/07/11 06:34:53;;;;;;;0.50;0.50;;;;;;;16.51;100.00;102362.91;4985235;28;20547;-82
2022/07/11 06:37:22;;;;;;;1.25;0.85;;;;;;;16.56;100.00;102369.16;4968148;28;20060;-82
2022/07/11 06:39:50;;;;;;;2.28;0.70;;;;;;;16.60;100.00;102370.91;4984913;28;20685;-81
2022/07/11 06:42:19;;;;;;;0.40;0.40;;;;;;;16.61;100.00;102370.03;5002346;28;20050;-81
2022/07/11 06:44:55;;;;;;;0.50;0.50;;;;;;;16.67;100.00;102371.81;4938551;28;20168;-81
2022/07/11 06:47:25;;;;;;;0.50;0.50;;;;;;;16.73;100.00;102364.75;4989747;28;20034;-82
2022/07/11 06:49:53;;;;;;;1.95;0.40;;;;;;;16.79;100.00;102363.84;4998464;28;20037;-81
2022/07/11 06:52:21;;;;;;;0.35;0.35;;;;;;;16.82;100.00;102361.22;5002050;28;20046;-82
2022/07/11 06:54:50;;;;;;;0.43;0.43;;;;;;;16.84;100.00;102355.91;4956698;28;20247;-82
2022/07/11 06:57:18;;;;;;;0.55;0.55;;;;;;;16.88;100.00;102368.31;4963525;28;20223;-82
2022/07/11 06:59:46;;;;;;;0.63;0.63;;;;;;;16.92;100.00;102371.00;4971948;28;20050;-83
2022/07/11 07:02:15;;;;;;;0.30;0.30;;;;;;;16.97;100.00;102362.13;4956379;28;20070;-82
2022/07/11 07:04:43;;;;;;;0.40;0.40;;;;;;;16.99;100.00;102366.56;4972811;28;20415;-81
2022/07/11 07:07:12;;;;;;;0.45;0.45;;;;;;;17.00;100.00;102383.44;4928447;28;20428;-81
2022/07/11 07:09:41;;;;;;;0.30;0.30;;;;;;;17.00;100.00;102379.00;4947909;28;20048;-81
2022/07/11 07:12:09;;;;;;;4.82;0.60;;;;;;;16.94;100.00;102377.22;4999086;28;20548;-83
2022/07/11 07:14:38;;;;;;;0.50;0.40;;;;;;;16.91;100.00;102390.53;5000732;28;20060;-82
2022/07/11 07:17:08;;;;;;;1.20;0.30;;;;;;;16.83;100.00;102381.63;4988921;28;20160;-82
2022/07/11 07:19:36;;;;;;;0.52;0.43;;;;;;;16.82;100.00;102386.91;5001280;28;20049;-82
2022/07/11 07:22:08;;;;;;;1.33;0.38;;;;;;;16.79;100.00;102389.59;4986952;28;20057;-82
2022/07/11 07:24:36;;;;;;;2.38;0.60;;;;;;;16.77;100.00;102394.91;4960412;28;20042;-82
2022/07/11 07:27:06;;;;;;;0.40;0.40;;;;;;;16.74;100.00;102403.75;4976975;28;20038;-83
2022/07/11 07:29:34;;;;;;;0.38;0.38;;;;;;;16.72;100.00;102394.88;4979743;28;20034;-83
2022/07/11 07:32:03;;;;;;;1.33;0.50;;;;;;;16.71;100.00;102397.53;4964744;28;20038;-83
2022/07/11 07:34:32;;;;;;;0.68;0.60;;;;;;;16.73;100.00;102410.00;4981920;28;20395;-83
2022/07/11 07:37:00;;;;;;;0.35;0.30;;;;;;;16.76;100.00;102403.78;4967938;28;20038;-83
2022/07/11 07:39:29;;;;;;;0.82;0.65;;;;;;;16.73;100.00;102414.44;4944977;28;20050;-82
2022/07/11 07:41:57;;;;;;;1.05;0.60;;;;;;;16.69;100.00;102413.53;4968008;28;20049;-83
2022/07/11 07:44:26;;;;;;;2.15;0.93;;;;;;;16.68;100.00;102419.72;4965248;28;20038;-82
2022/07/11 07:46:56;;;;;;;0.52;0.52;;;;;;;16.69;100.00;102417.94;4984334;28;20053;-83
2022/07/11 07:49:24;;;;;;;1.38;0.70;;;;;;;16.67;100.00;102411.72;4981471;28;20620;-82
2022/07/11 07:51:53;;;;;;;0.60;0.60;;;;;;;16.65;100.00;102408.19;4977072;28;20403;-83
2022/07/11 07:54:21;;;;;;;1.70;0.43;;;;;;;16.64;100.00;102407.28;4949040;28;20061;-82
2022/07/11 07:56:50;;;;;;;1.10;0.60;;;;;;;16.65;100.00;102403.72;4986038;28;20047;-82
2022/07/11 07:59:18;;;;;;;0.35;0.35;;;;;;;16.67;100.00;102412.66;4960477;28;24175;-82
2022/07/11 08:01:47;;;;;;;1.65;0.40;;;;;;;16.71;100.00;102414.41;4965281;28;20045;-83
2022/07/11 08:04:15;;;;;;;0.40;0.40;;;;;;;16.78;100.00;102412.66;4991911;28;20057;-83
2022/07/11 08:06:44;;;;;;;0.52;0.50;;;;;;;16.84;100.00;102407.41;4987541;28;20141;-83
2022/07/11 08:09:12;;;;;;;2.08;0.60;;;;;;;16.88;100.00;102413.59;4969328;28;20050;-82
2022/07/11 08:11:48;;;;;;;4.82;0.70;;;;;;;16.92;100.00;102407.41;4958814;28;20156;-82
2022/07/11 08:14:17;;;;;;;0.85;0.63;;;;;;;16.99;100.00;102408.28;4984201;28;20687;-82
2022/07/11 08:16:46;;;;;;;0.98;0.93;;;;;;;17.03;100.00;102402.06;4971607;28;20042;-82
2022/07/11 08:19:14;;;;;;;2.47;0.95;;;;;;;17.06;100.00;102402.09;4976098;28;20089;-81
2022/07/11 08:21:43;;;;;;;1.92;0.70;;;;;;;17.07;100.00;102390.53;4978465;28;20050;-82
2022/07/11 08:24:11;;;;;;;0.45;0.45;;;;;;;17.08;100.00;102392.31;4955175;28;20043;-83
2022/07/11 08:26:40;;;;;;;1.25;0.60;;;;;;;17.07;100.00;102404.75;4957032;28;20057;-82
2022/07/11 08:29:08;;;;;;;0.75;0.75;;;;;;;17.03;100.00;102408.31;4984199;28;20688;-82
2022/07/11 08:31:37;;;;;;;0.77;0.60;;;;;;;17.06;100.00;102415.41;4949220;28;20038;-82
2022/07/11 08:34:05;;;;;;;0.50;0.50;;;;;;;17.05;100.00;102405.63;4973838;28;20440;-82
2022/07/11 08:36:41;;;;;;;0.75;0.47;;;;;;;17.08;100.00;102408.31;4975073;28;20042;-82
2022/07/11 08:39:09;;;;;;;0.98;0.47;;;;;;;17.10;100.00;102410.06;4988319;28;20069;-83
2022/07/11 08:41:45;;;;;;;0.35;0.35;;;;;;;17.11;100.00;102405.66;4960167;28;20042;-82
2022/07/11 08:44:17;;;;;;;0.50;0.50;;;;;;;17.12;100.00;102412.72;4971251;28;20561;-82
2022/07/11 08:46:45;;;;;;;0.45;0.40;;;;;;;17.12;100.00;102415.41;4978347;28;20046;-83
2022/07/11 08:49:14;;;;;;;0.57;0.47;;;;;;;17.11;100.00;102419.84;4979434;28;20050;-82
2022/07/11 08:51:43;;;;;;;1.55;0.40;;;;;;;17.09;100.00;102421.63;4977222;28;20066;-81
2022/07/11 08:54:12;;;;;;;0.40;0.40;;;;;;;17.05;100.00;102433.16;4976725;28;20164;-82
2022/07/11 08:56:45;;;;;;;0.57;0.45;;;;;;;17.06;100.00;102437.59;4971703;28;20042;-83
2022/07/11 08:59:17;;;;;;;1.00;0.40;;;;;;;17.05;100.00;102435.81;4951406;28;20073;-82
2022/07/11 09:01:49;;;;;;;0.40;0.40;;;;;;;17.02;100.00;102425.16;5006613;28;20045;-82
2022/07/11 09:04:19;;;;;;;0.40;0.40;;;;;;;17.03;100.00;102416.31;4972936;28;20045;-81
2022/07/11 09:06:47;;;;;;;0.77;0.60;;;;;;;17.04;100.00;102426.03;4970399;28;20041;-82
2022/07/11 09:09:16;;;;;;;0.32;0.32;;;;;;;17.06;100.00;102421.59;4975063;28;20029;-81
2022/07/11 09:11:56;;;;;;;2.65;0.70;;;;;;;17.06;100.00;102420.72;4965689;28;20057;-82
2022/07/11 09:14:31;;;;;;;0.52;0.52;;;;;;;17.09;100.00;102421.63;4996209;28;20522;-82
2022/07/11 09:17:04;;;;;;;0.30;0.30;;;;;;;17.12;100.00;102426.06;4977197;28;20050;-82
2022/07/11 09:19:38;;;;;;;0.55;0.40;;;;;;;17.12;100.00;102426.06;4979991;28;20041;-82
2022/07/11 09:25:21;;;;;;;1.45;0.60;;;;;;;17.08;100.00;102443.81;4991767;28;20049;-82
2022/07/11 09:27:52;;;;;;;1.90;0.50;;;;;;;17.03;100.00;102439.34;4973538;28;20038;-81
2022/07/11 09:30:28;;;;;;;0.50;0.50;;;;;;;16.99;100.00;102442.91;4995909;28;21363;-81
2022/07/11 09:33:01;;;;;;;0.60;0.60;;;;;;;17.01;100.00;102434.03;4991856;28;20787;-81
2022/07/11 09:35:37;;;;;;;0.43;0.43;;;;;;;17.06;100.00;102434.94;4959485;28;20049;-82
2022/07/11 09:38:09;;;;;;;1.20;0.40;;;;;;;17.08;100.00;102437.59;4983457;28;20042;-82
2022/07/11 09:40:42;;;;;;;0.95;0.45;;;;;;;17.09;100.00;102444.72;4990559;28;20046;-83
2022/07/11 09:43:10;;;;;;;0.40;0.40;;;;;;;17.09;100.00;102436.72;4982022;28;20161;-83
2022/07/11 09:45:39;;;;;;;1.75;0.80;;;;;;;17.11;100.00;102430.50;4981687;28;20045;-83
2022/07/11 09:48:12;;;;;;;0.50;0.50;;;;;;;17.17;100.00;102428.75;5001084;28;20046;-82
2022/07/11 09:50:56;;;;;;;0.98;0.40;;;;;;;17.24;100.00;102435.81;4990611;28;20802;-82
2022/07/11 09:53:24;;;;;;;0.40;0.40;;;;;;;17.29;100.00;102434.94;4989005;28;20073;-82
2022/07/11 09:55:52;;;;;;;0.50;0.50;;;;;;;17.38;100.00;102436.72;4978656;28;20232;-82
2022/07/11 09:58:28;;;;;;;0.88;0.60;;;;;;;17.48;100.00;102433.16;4979595;28;20042;-82
2022/07/11 10:00:57;;;;;;;0.50;0.50;;;;;;;17.60;100.00;102429.63;4964582;28;20065;-82
2022/07/11 10:03:27;;;;;;;1.00;0.43;;;;;;;17.70;100.00;102430.50;4989299;28;20046;-82
2022/07/11 10:06:15;;;;;;;1.77;0.55;;;;;;;17.76;100.00;102429.59;4993949;28;20497;-82
2022/07/11 10:08:47;;;;;;;0.45;0.40;;;;;;;17.79;100.00;102429.56;4976423;28;20041;-81
2022/07/11 10:11:15;;;;;;;0.40;0.40;;;;;;;17.81;100.00;102428.72;4957535;28;20068;-82
2022/07/11 10:13:46;;;;;;;1.40;0.73;;;;;;;17.89;100.00;102432.28;4984746;28;20060;-81
2022/07/11 10:16:15;;;;;;;0.40;0.40;;;;;;;17.97;100.00;102428.69;4958696;28;20042;-81
2022/07/11 10:18:43;;;;;;;1.08;0.43;;;;;;;18.04;100.00;102434.03;4978105;28;20044;-81
2022/07/11 10:21:26;;;;;;;1.63;0.50;;;;;;;18.11;100.00;102434.91;4969565;28;20030;-81
2022/07/11 10:24:21;;;;;;;0.57;0.52;;;;;;;18.12;100.00;102437.53;4992163;28;20061;-82
2022/07/11 10:27:09;;;;;;;0.52;0.30;;;;;;;18.16;100.00;102434.88;4979374;28;20542;-82
2022/07/11 10:29:55;;;;;;;0.40;0.40;;;;;;;18.11;100.00;102437.56;4974362;28;20042;-81
2022/07/11 10:32:24;;;;;;;0.50;0.50;;;;;;;18.04;100.00;102439.34;4976950;28;20077;-81
2022/07/11 10:35:07;;;;;;;0.68;0.60;;;;;;;18.03;100.00;102434.91;4965485;28;20042;-81
2022/07/11 10:37:50;;;;;;;0.68;0.40;;;;;;;18.06;100.00;102437.56;4974510;28;20049;-82
2022/07/11 10:40:43;;;;;;;0.40;0.40;;;;;;;18.07;100.00;102434.03;4969053;28;20173;-81
2022/07/11 10:43:12;;;;;;;0.40;0.40;;;;;;;18.11;100.00;102433.13;5000323;28;20400;-82
2022/07/11 10:46:01;;;;;;;1.48;0.65;;;;;;;18.16;100.00;102441.09;4975691;28;20049;-82
2022/07/11 10:48:32;;;;;;;0.28;0.28;;;;;;;18.19;100.00;102438.44;4996877;28;20048;-82
2022/07/11 10:51:01;;;;;;;0.20;0.20;;;;;;;18.22;100.00;102430.41;4978899;28;20709;-82
2022/07/11 10:53:39;;;;;;;0.25;0.25;;;;;;;18.23;100.00;102432.19;4988003;28;20077;-84
2022/07/11 10:56:21;;;;;;;2.45;0.40;;;;;;;18.24;100.00;102436.63;4965049;28;20053;-81
2022/07/11 10:59:14;;;;;;;0.30;0.30;;;;;;;18.25;100.00;102440.19;4980050;28;20504;-81
2022/07/11 11:02:10;;;;;;;1.25;0.45;;;;;;;18.24;100.00;102449.06;4957625;28;20038;-81
2022/07/11 11:04:46;;;;;;;0.30;0.30;;;;;;;18.23;100.00;102457.97;4990177;28;20046;-80
2022/07/11 11:07:28;;;;;;;0.32;0.32;;;;;;;18.23;100.00;102448.19;4976866;28;20050;-81
2022/07/11 11:09:57;;;;;;;0.30;0.30;;;;;;;18.22;100.00;102459.78;4979376;28;20053;-81
2022/07/11 11:13:04;;;;;;;0.45;0.40;;;;;;;18.26;100.00;102457.94;4979634;28;20081;-81
2022/07/11 11:15:55;;;;;;;1.17;0.60;;;;;;;18.27;100.00;102460.63;5000575;28;20046;-82
2022/07/11 11:21:06;;;;;;;0.40;0.40;;;;;;;18.25;100.00;102454.41;4989821;28;21024;-82
2022/07/11 11:23:44;;;;;;;1.02;0.50;;;;;;;18.24;100.00;102457.97;4984256;28;20487;-81
2022/07/11 11:26:19;;;;;;;1.48;0.40;;;;;;;18.22;100.00;102451.78;4981245;28;20161;-81
2022/07/11 11:28:58;;;;;;;1.48;0.50;;;;;;;18.20;100.00;102460.66;4994500;28;20046;-81
2022/07/11 11:31:29;;;;;;;1.02;0.60;;;;;;;18.22;100.00;102459.78;4967103;28;20050;-83
2022/07/11 11:33:59;;;;;;;0.57;0.50;;;;;;;18.19;100.00;102457.09;4945080;28;20054;-80
2022/07/11 11:36:29;;;;;;;1.70;0.50;;;;;;;18.27;100.00;102454.41;4990709;28;20053;-80
2022/07/11 11:38:58;;;;;;;2.10;0.70;;;;;;;18.36;100.00;102458.84;4990669;28;20068;-79
2022/07/11 11:41:28;;;;;;;1.20;0.63;;;;;;;18.39;100.00;102459.72;4953292;28;20045;-80